createdAt,value
2023-01-13T00:00:26.340Z,62.64
2023-01-13T00:04:27.947Z,63.19
2023-01-13T00:08:29.820Z,62.51
2023-01-13T00:12:31.544Z,63.38
2023-01-13T00:16:33.038Z,63.66
2023-01-13T00:20:34.637Z,62.80
2023-01-13T00:24:36.191Z,63.44
2023-01-13T00:28:37.871Z,63.77
2023-01-13T00:32:39.561Z,63.87
2023-01-13T00:36:41.155Z,64.58
2023-01-13T00:40:42.733Z,64.92
2023-01-13T00:44:44.357Z,66.60
2023-01-13T00:48:46.936Z,68.89
2023-01-13T00:52:48.495Z,70.09
2023-01-13T00:56:50.045Z,70.55
2023-01-13T01:00:51.734Z,70.30
2023-01-13T01:04:53.423Z,70.97
2023-01-13T01:08:55.664Z,70.74
2023-01-13T01:12:57.417Z,69.91
2023-01-13T01:16:59.431Z,69.68
2023-01-13T01:21:01.535Z,70.70
2023-01-13T01:25:03.314Z,70.89
2023-01-13T01:29:04.918Z,71.75
2023-01-13T01:33:06.615Z,70.99
2023-01-13T01:37:08.584Z,70.15
2023-01-13T01:41:14.826Z,69.80
2023-01-13T01:45:22.551Z,69.62
2023-01-13T01:49:33.715Z,68.88
2023-01-13T01:53:35.395Z,68.33
2023-01-13T01:57:58.479Z,67.16
2023-01-13T02:02:00.557Z,67.29
2023-01-13T02:06:03.135Z,66.71
2023-01-13T02:10:08.747Z,66.75
2023-01-13T02:14:10.336Z,65.64
2023-01-13T02:18:17.632Z,65.20
2023-01-13T02:22:22.351Z,64.85
2023-01-13T02:27:02.651Z,64.41
2023-01-13T02:31:33.112Z,65.32
2023-01-13T02:35:58.523Z,64.74
2023-01-13T02:40:11.989Z,64.11
2023-01-13T02:44:20.473Z,64.28
2023-01-13T02:48:24.040Z,64.28
2023-01-13T02:52:33.173Z,63.96
2023-01-13T02:56:40.139Z,63.89
2023-01-13T03:00:42.552Z,63.79
2023-01-13T03:04:57.843Z,63.31
2023-01-13T03:09:15.356Z,63.22
2023-01-13T03:13:16.828Z,63.43
2023-01-13T03:17:37.717Z,63.28
2023-01-13T03:21:49.930Z,63.32
2023-01-13T03:25:59.979Z,63.22
2023-01-13T03:30:10.682Z,63.43
2023-01-13T03:34:21.189Z,62.80
2023-01-13T03:38:36.627Z,63.03
2023-01-13T03:43:03.181Z,63.42
2023-01-13T03:47:21.692Z,63.48
2023-01-13T03:51:24.738Z,62.82
2023-01-13T03:55:31.318Z,63.24
2023-01-13T03:59:38.423Z,63.43
2023-01-13T04:04:00.370Z,63.52
2023-01-13T04:08:21.455Z,63.02
2023-01-13T04:12:49.947Z,63.09
2023-01-13T04:16:52.771Z,62.91
2023-01-13T04:20:57.014Z,63.57
2023-01-13T04:24:58.615Z,63.51
2023-01-13T04:29:00.080Z,63.29
2023-01-13T04:33:01.898Z,63.48
2023-01-13T04:37:03.543Z,63.29
2023-01-13T04:41:05.205Z,63.36
2023-01-13T04:45:07.869Z,63.45
2023-01-13T04:49:09.387Z,63.56
2023-01-13T04:53:11.402Z,63.35
2023-01-13T04:57:12.865Z,63.57
2023-01-13T05:01:14.648Z,63.59
2023-01-13T05:05:16.432Z,63.27
2023-01-13T05:09:18.173Z,63.19
2023-01-13T05:13:38.503Z,63.22
2023-01-13T05:17:40.855Z,63.22
2023-01-13T05:22:20.755Z,63.48
2023-01-13T05:26:23.219Z,63.64
2023-01-13T05:30:28.113Z,63.04
2023-01-13T05:34:29.809Z,63.38
2023-01-13T05:38:31.354Z,63.75
2023-01-13T05:42:52.073Z,63.05
2023-01-13T05:46:53.761Z,63.31
2023-01-13T05:50:55.694Z,62.97
2023-01-13T05:54:57.181Z,63.91
2023-01-13T05:58:58.913Z,63.72
2023-01-13T06:03:00.619Z,63.33
2023-01-13T06:07:02.273Z,63.51
2023-01-13T06:11:03.804Z,63.24
2023-01-13T06:15:05.949Z,63.77
2023-01-13T06:19:09.278Z,63.66
2023-01-13T06:23:11.822Z,63.36
2023-01-13T06:27:13.559Z,63.34
2023-01-13T06:31:15.852Z,63.78
2023-01-13T06:35:21.530Z,64.03
2023-01-13T06:39:29.002Z,63.82
2023-01-13T06:43:30.593Z,62.59
2023-01-13T06:47:32.416Z,63.18
2023-01-13T06:51:34.060Z,63.18
2023-01-13T06:55:36.474Z,62.86
2023-01-13T07:05:44.351Z,63.88
2023-01-13T07:09:46.178Z,63.46
2023-01-13T07:14:06.447Z,63.27
2023-01-13T07:18:08.101Z,63.84
2023-01-13T07:22:09.722Z,63.17
2023-01-13T07:27:01.574Z,62.86
2023-01-13T07:31:03.767Z,63.42
2023-01-13T07:35:05.972Z,62.63
2023-01-13T07:39:57.874Z,62.63
2023-01-13T07:45:04.898Z,62.29
2023-01-13T07:49:56.756Z,61.96
2023-01-13T07:53:58.422Z,61.86
2023-01-13T07:58:35.232Z,61.40
2023-01-13T08:03:26.656Z,60.90
2023-01-13T08:07:28.165Z,61.92
2023-01-13T08:11:29.643Z,61.12
2023-01-13T08:15:32.320Z,60.26
2023-01-13T08:20:08.372Z,59.75
2023-01-13T08:24:59.758Z,59.88
2023-01-13T08:29:51.748Z,60.18
2023-01-13T08:34:43.762Z,60.09
2023-01-13T08:39:36.152Z,59.75
2023-01-13T08:44:03.111Z,58.82
2023-01-13T08:48:05.123Z,57.88
2023-01-13T08:52:56.795Z,55.61
2023-01-13T09:02:59.419Z,54.06
2023-01-13T09:07:02.152Z,53.28
2023-01-13T09:11:24.176Z,52.58
2023-01-13T09:15:25.725Z,50.66
2023-01-13T09:19:28.966Z,46.42
2023-01-13T09:23:30.491Z,43.63
2023-01-13T09:27:32.255Z,47.35
2023-01-13T09:31:34.328Z,51.47
2023-01-13T09:35:36.450Z,55.64
2023-01-13T09:39:38.051Z,62.33
2023-01-13T09:43:55.501Z,65.32
2023-01-13T09:48:06.955Z,67.61
2023-01-13T09:52:19.221Z,71.65
2023-01-13T09:56:21.438Z,72.68
2023-01-13T10:00:25.759Z,72.79
2023-01-13T10:04:28.016Z,73.55
2023-01-13T10:08:36.168Z,73.00
2023-01-13T10:12:56.529Z,72.21
2023-01-13T10:17:25.906Z,71.40
2023-01-13T10:21:33.560Z,69.44
2023-01-13T10:25:53.866Z,70.24
2023-01-13T10:29:55.998Z,69.94
2023-01-13T10:34:06.212Z,68.20
2023-01-13T10:38:17.066Z,69.33
2023-01-13T10:42:22.830Z,70.70
2023-01-13T10:46:24.760Z,68.58
2023-01-13T10:50:29.640Z,67.90
2023-01-13T10:54:31.492Z,67.85
2023-01-13T10:58:33.025Z,66.92
2023-01-13T11:02:35.876Z,65.44
2023-01-13T11:06:37.953Z,64.68
2023-01-13T11:10:46.441Z,64.27
2023-01-13T11:14:49.422Z,64.65
2023-01-13T11:19:12.455Z,66.04
2023-01-13T11:23:22.639Z,66.06
2023-01-13T11:27:38.128Z,67.83
2023-01-13T11:31:46.152Z,70.36
2023-01-13T11:36:02.003Z,69.71
2023-01-13T11:40:05.346Z,70.60
2023-01-13T11:44:09.925Z,66.96
2023-01-13T11:48:17.703Z,63.83
2023-01-13T11:52:32.036Z,63.67
2023-01-13T11:56:47.723Z,63.71
2023-01-13T12:01:23.736Z,64.24
2023-01-13T12:05:29.551Z,64.70
2023-01-13T12:09:48.055Z,63.13
2023-01-13T12:14:11.503Z,63.02
2023-01-13T12:18:38.206Z,61.39
2023-01-13T12:22:42.404Z,52.95
2023-01-13T12:26:51.066Z,48.90
2023-01-13T12:30:59.594Z,35.60
2023-01-13T12:35:22.940Z,32.77
2023-01-13T12:39:43.290Z,31.42
2023-01-13T12:44:07.226Z,28.31
2023-01-13T12:48:28.643Z,29.19
2023-01-13T12:52:43.945Z,37.23
2023-01-13T12:56:45.798Z,44.99
2023-01-13T13:00:49.651Z,47.88
2023-01-13T13:04:55.988Z,45.26
2023-01-13T13:09:20.766Z,36.26
2023-01-13T13:13:43.575Z,28.67
2023-01-13T13:18:00.184Z,26.19
2023-01-13T13:22:14.432Z,25.32
2023-01-13T13:26:23.733Z,27.78
2023-01-13T13:30:35.189Z,27.81
2023-01-13T13:34:52.086Z,28.81
2023-01-13T13:39:37.547Z,27.03
2023-01-13T13:44:02.287Z,29.47
2023-01-13T13:48:23.631Z,27.50
2023-01-13T13:52:54.134Z,26.56
2023-01-13T13:56:56.220Z,25.62
2023-01-13T14:00:58.443Z,31.44
2023-01-13T14:05:52.137Z,40.63
2023-01-13T14:09:54.747Z,40.48
2023-01-13T14:14:05.174Z,40.96
2023-01-13T14:18:13.616Z,44.39
2023-01-13T14:22:21.966Z,47.19
2023-01-13T14:26:29.586Z,49.81
2023-01-13T14:30:32.824Z,50.92
2023-01-13T14:34:35.536Z,53.10
2023-01-13T14:38:39.282Z,52.30
2023-01-13T14:42:43.670Z,52.51
2023-01-13T14:46:45.952Z,54.33
2023-01-13T14:50:47.688Z,52.95
2023-01-13T14:55:11.709Z,53.00
2023-01-13T14:59:35.372Z,53.96
2023-01-13T15:03:42.025Z,53.36
2023-01-13T15:08:06.665Z,53.99
2023-01-13T15:12:28.424Z,53.78
2023-01-13T15:23:01.326Z,61.57
2023-01-13T15:27:52.682Z,64.21
2023-01-13T15:32:44.684Z,66.34
2023-01-13T15:37:56.743Z,65.79
2023-01-13T15:42:18.237Z,65.64
2023-01-13T15:46:38.511Z,66.76
2023-01-13T15:50:40.363Z,70.33
2023-01-13T15:54:41.892Z,69.36
2023-01-13T15:58:43.656Z,70.55
2023-01-13T16:02:45.317Z,70.34
2023-01-13T16:06:47.414Z,68.78
2023-01-13T16:10:50.033Z,69.20
2023-01-13T16:14:51.707Z,69.42
2023-01-13T16:18:54.233Z,68.78
2023-01-13T16:22:58.901Z,68.95
2023-01-13T16:27:00.380Z,67.96
2023-01-13T16:31:15.969Z,68.47
2023-01-13T16:35:18.956Z,68.39
2023-01-13T16:39:22.116Z,68.39
2023-01-13T16:43:23.691Z,68.08
2023-01-13T16:47:25.292Z,68.29
2023-01-13T16:51:26.774Z,68.08
2023-01-13T16:55:28.398Z,67.89
2023-01-13T16:59:29.993Z,67.96
2023-01-13T17:03:35.983Z,69.88
2023-01-13T17:07:37.773Z,70.71
2023-01-13T17:11:39.688Z,70.22
2023-01-13T17:15:41.547Z,71.43
2023-01-13T17:19:43.476Z,70.43
2023-01-13T17:23:45.509Z,70.46
2023-01-13T17:27:47.081Z,68.94
2023-01-13T17:31:52.608Z,64.74
2023-01-13T17:35:54.411Z,62.73
2023-01-13T17:39:55.977Z,62.03
2023-01-13T17:43:57.589Z,63.19
2023-01-13T17:47:59.387Z,60.05
2023-01-13T17:52:01.030Z,61.72
2023-01-13T17:56:02.665Z,58.92
2023-01-13T18:00:05.043Z,60.08
2023-01-13T18:04:20.709Z,58.62
2023-01-13T18:08:23.664Z,57.27
2023-01-13T18:12:25.431Z,58.24
2023-01-13T18:16:30.448Z,58.39
2023-01-13T18:20:50.578Z,58.73
2023-01-13T18:25:10.556Z,62.00
2023-01-13T18:29:12.169Z,62.91
2023-01-13T18:33:13.915Z,66.07
2023-01-13T18:37:16.688Z,62.86
2023-01-13T18:41:36.931Z,61.42
2023-01-13T18:45:38.503Z,62.52
2023-01-13T18:49:40.070Z,60.61
2023-01-13T18:53:41.761Z,60.51
2023-01-13T18:57:43.313Z,60.01
2023-01-13T19:01:45.117Z,60.05
2023-01-13T19:05:46.675Z,62.86
2023-01-13T19:09:49.997Z,62.18
2023-01-13T19:13:53.425Z,59.71
2023-01-13T19:17:55.015Z,58.95
2023-01-13T19:21:56.717Z,58.88
2023-01-13T19:26:00.069Z,59.00
2023-01-13T19:30:02.884Z,61.90
2023-01-13T19:34:05.637Z,60.43
2023-01-13T19:38:07.255Z,59.01
2023-01-13T19:42:29.888Z,59.11
2023-01-13T19:46:32.913Z,59.09
2023-01-13T19:50:38.916Z,59.08
2023-01-13T19:54:40.712Z,60.41
2023-01-13T19:58:43.953Z,59.94
2023-01-13T20:02:49.080Z,61.52
2023-01-13T20:06:50.597Z,60.84
2023-01-13T20:11:12.443Z,60.78
2023-01-13T20:15:14.222Z,63.77
2023-01-13T20:19:15.801Z,63.16
2023-01-13T20:23:17.480Z,62.84
2023-01-13T20:27:19.034Z,61.38
2023-01-13T20:31:20.697Z,62.22
2023-01-13T20:35:22.313Z,61.20
2023-01-13T20:39:28.845Z,60.98
2023-01-13T20:43:30.349Z,60.73
2023-01-13T20:47:32.195Z,60.52
2023-01-13T20:51:33.815Z,60.44
2023-01-13T20:55:35.351Z,61.31
2023-01-13T20:59:38.188Z,62.13
2023-01-13T21:03:39.864Z,63.01
2023-01-13T21:07:41.446Z,63.96
2023-01-13T21:12:01.691Z,63.25
2023-01-13T21:16:03.431Z,63.10
2023-01-13T21:20:06.934Z,65.03
2023-01-13T21:24:08.659Z,62.25
2023-01-13T21:28:11.693Z,62.08
2023-01-13T21:32:13.758Z,62.64
2023-01-13T21:36:15.732Z,62.00
2023-01-13T21:40:18.118Z,61.76
2023-01-13T21:44:39.974Z,63.37
2023-01-13T21:48:41.614Z,63.45
2023-01-13T21:52:43.320Z,61.34
2023-01-13T21:56:44.957Z,62.81
2023-01-13T22:00:49.019Z,62.15
2023-01-13T22:04:51.870Z,61.72
2023-01-13T22:08:59.880Z,61.90
2023-01-13T22:13:21.629Z,62.96
2023-01-13T22:17:26.427Z,62.92
2023-01-13T22:21:27.988Z,65.57
2023-01-13T22:25:29.773Z,64.26
2023-01-13T22:29:31.504Z,63.99
2023-01-13T22:33:33.089Z,65.86
2023-01-13T22:37:35.292Z,63.65
2023-01-13T22:41:36.922Z,63.14
2023-01-13T22:45:38.841Z,64.46
2023-01-13T22:49:42.060Z,62.71
2023-01-13T22:53:43.858Z,62.58
2023-01-13T22:57:48.094Z,63.20
2023-01-13T23:01:50.057Z,63.87
2023-01-13T23:05:57.283Z,64.27
2023-01-13T23:09:59.261Z,63.64
2023-01-13T23:14:03.794Z,63.09
2023-01-13T23:18:05.375Z,63.44
2023-01-13T23:22:06.920Z,65.09
2023-01-13T23:26:08.885Z,64.33
2023-01-13T23:30:11.376Z,66.14
2023-01-13T23:34:12.929Z,68.40
2023-01-13T23:38:14.478Z,68.53
2023-01-13T23:42:16.019Z,68.86
2023-01-13T23:46:17.938Z,69.85
2023-01-13T23:50:19.429Z,68.64
2023-01-13T23:54:21.021Z,68.82
2023-01-13T23:58:22.546Z,68.65
